Strona główna
METAR-TAF:

METAR-TAF

Lotnisko :

Port lotniczy Lycksele

Lycksele, Szwecja

Szerokość geograficzna: 64-32-51N, Długość geograficzna: 018-43-03E, wysokość: 211 m

Aktualna obserwacja pogody

Raport powstał 13 minut temu, godzina 18:20 UTC
Wiatr 6 kt od zachód
Temperatura 14°C
Wilgotność 63%
Ciśnienie 1017 hPa
Widzialność 10 km lub więcej
Brak chmur poniżej 1500 m i brak chmur cumulonimbus

METAR: ESNL 211820Z 27006KT CAVOK 14/07 Q1017

czas: 20:33 (18:33 UTC)


TAF: brakujący

Obserwacja i prognoza pogody dla ponad 4000 lotnisk (raport METAR i TAF).

Dostępne stacje oznaczono żółtymi i czerwonymi punktami na mapie.

Najedź kursorem aby zobaczyć nazwę stacji.

Kliknij aby zobaczyć obserwacje i prognozy pogody.

Aby zmienić mapę: kliknij na zielony przycisk z czarnym krzyżykiem, aby powiększyć; na zielony przycisk z myślnikiem, aby pomniejszyć; na zielone strzałki, aby przejść do map sąsiednich.


METAR-TAF: